Aérodrome :
LOGIN :

S'inscrire | Disclaimer

   EN    FR    IT 

 










Légende :    VFR   VFR Marginal   IFR   IFR Intensif   IFR Très Intensif
Visi : 
Plafond : 
>= 8 km
>= 3000ft
5 à 8 km
1000 à 3000 ft
1500m à 5 km
500 à 1000 ft
800 à 1500m
200 à 500 ft
< 800m
< 200 ft
Symboles :   Orages  Brouillard  Fortes neiges  Fortes précipitations  Vent > 20 kt
SIGMETs :   Divers  Orages  Givrage  Turbulence  Onde Orograph.  Cendres Volcan.






- Altitude de l'aérodrome : 194 ft
- Code IATA : LME


LFRM - Le Mans

DERNIER METAR :
  • 132000Z AUTO 25005KT 220V290 CAVOK 21/16 Q1014 TEMPO VRB15G25KT 4000 SHRA SCT025 BKN040CB

METARs EXPIRÉS :
  • 131930Z AUTO 27006KT 230V300 9999 ///TCU 22/16 Q1013 TEMPO VRB15G25KT 4000 SHRA SCT025 BKN040CB
  • 131900Z AUTO 26007KT 220V290 CAVOK 22/17 Q1013 TEMPO VRB15G25KT 2000 TSRAGR BKN010 BKN020CB
  • 131830Z AUTO 26005KT 220V300 9999 FEW047/// SCT110/// OVC130/// ///CB 23/17 Q1012 TEMPO VRB15G25KT 2000 TSRAGR BKN010 BKN020CB
  • 131800Z AUTO 26006KT 220V300 9999 ///CB 24/17 Q1012 TEMPO VRB15G25KT 2000 TSRAGR BKN010 BKN020CB
  • 131730Z AUTO 24008KT 210V280 9999 FEW034/// SCT094/// BKN140/// ///CB 25/17 Q1012 TEMPO VRB15G25KT 2000 TSRAGR BKN010 BKN020CB

TAF TAF LFRM
Valide du 13 à 18h jusqu'au 14 à 18h UTC


131700Z 1318/1418 24005KT 9999 BKN030
TEMPO 1318/1324 4000 SHRA SCT025 BKN040CB
PROB40
TEMPO 1318/1321 VRB15G25KT 2000 TSRAGR BKN010 BKN020CB
BECMG 1322/1324 BKN008
TEMPO 1400/1406 4000 SHRA BKN004 BKN020CB
PROB30
TEMPO 1404/1408 0500 FG VV///
BECMG 1409/1411 BKN018



MET'MAP, la Météo Aéronautique d'un coup d'oeil ! - Copyright ORBIFLY Décembre 2007 - Disclaimer

ORBIFLY MET'MAP TEAM :

Programmation & Développement : Alexandra Zaïnal
Sur une idée originale de : Baudouin d'Aumeries
Assistance à la programmation : Marc-Olivier Méhu
Soutien technique & logistique : Manuel Goepfert

Contact : metmap@orbifly.com




SOURCES & CREDITS :

   NOAA